EndleSS Horizon — D5AE4 — position and weather

sailwx.info

Track history (hours):
 
Tides and Currents Weather Stations Pressure Air Temp Water Temp Dewpoint Dewpoint Depression Visibility Wind Speed Wind Dir Waves Ship Positions

EndleSS Horizon

Last reported at 2018-Apr-20 11:47 UTC. Time now 2018-May-25 01:27 UTC.
Position N 23°16' E 117°33'.
Warning: this ship's position is 34 days out of date.

Length 189 m; draft 11.9 m.

Type: Cargo ship. MMSI: 636015358.

Date/timePositionNaut miles runAvg speedWind from/ knotsBaromVisibWave heightAir tempDewpointWater temp
2018-Apr-20 11:47N 23°16' E 117°33'413.7
2018-Apr-20 11:29N 23°19' E 117°36'713.9
2018-Apr-20 11:00N 23°23' E 117°42'713.9
2018-Apr-20 10:30N 23°28' E 117°47'714.0
2018-Apr-20 10:01N 23°33' E 117°52'714.0
2018-Apr-20 09:29N 23°38' E 117°59'714.3
2018-Apr-20 08:59N 23°43' E 118°05'1114.3
2018-Apr-20 08:13N 23°50' E 118°14'414.2
2018-Apr-20 07:57N 23°52' E 118°17'614.1
2018-Apr-20 07:31N 23°56' E 118°22'713.8
2018-Apr-20 06:58N 24°02' E 118°27'613.0
2018-Apr-20 06:30N 24°05' E 118°33'813.7
2018-Apr-20 05:57N 24°10' E 118°39'613.4
2018-Apr-20 05:28N 24°14' E 118°45'1113.1
2018-Apr-20 04:39N 24°21' E 118°53'312.9
2018-Apr-20 04:27N 24°23' E 118°55'712.8
2018-Apr-20 03:53N 24°28' E 119°02'1812.3
2018-Apr-20 02:24N 24°39' E 119°18'38312.5
2018-Apr-18 19:55N 29°57' E 123°17'1212.6
2018-Apr-18 18:57N 30°08' E 123°23'612.5
2018-Apr-18 18:27N 30°13' E 123°26'912.4
2018-Apr-18 17:43N 30°22' E 123°31'1511.5
2018-Apr-18 16:27N 30°36' E 123°34'712.0
2018-Apr-18 15:53N 30°43' E 123°34'612.5
2018-Apr-18 15:26N 30°48' E 123°35'511.4
2018-Apr-18 15:00N 30°53' E 123°35'612.5
2018-Apr-18 14:30N 30°59' E 123°36'712.5
2018-Apr-18 13:55N 31°06' E 123°36'512.7
2018-Apr-18 13:30N 31°12' E 123°34'611.3
2018-Apr-18 13:00N 31°17' E 123°34'1019.5
2018-Apr-18 12:29N 31°27' E 123°33'4 8.2
2018-Apr-18 12:00N 31°31' E 123°33'1117.6
2018-Apr-18 11:22N 31°42' E 123°31'3 8.7
2018-Apr-18 11:00N 31°45' E 123°31'815.2
2018-Apr-18 10:29N 31°53' E 123°31'815.1
2018-Apr-18 09:59N 32°01' E 123°30'2314.6
2018-Apr-18 08:23N 32°24' E 123°26'613.0
2018-Apr-18 07:56N 32°30' E 123°25'34512.2
2018-Apr-17 03:36N 38°06' E 121°53'512.9
2018-Apr-17 03:14N 38°08' E 121°48'312.9
2018-Apr-17 03:00N 38°10' E 121°45'612.8
2018-Apr-17 02:30N 38°13' E 121°37'612.8
2018-Apr-17 02:00N 38°16' E 121°30'913.0
2018-Apr-17 01:20N 38°21' E 121°21'713.3
2018-Apr-17 00:50N 38°24' E 121°13'613.6
2018-Apr-17 00:24N 38°27' E 121°07'513.9
2018-Apr-17 00:01N 38°30' E 121°01'1213.8
2018-Apr-16 23:08N 38°35' E 120°47'314.3
2018-Apr-16 22:56N 38°36' E 120°43'614.1
2018-Apr-16 22:30N 38°38' E 120°36'713.9
2018-Apr-16 22:00N 38°40' E 120°28'713.8
2018-Apr-16 21:30N 38°43' E 120°20'713.6
2018-Apr-16 21:00N 38°45' E 120°12'713.2
2018-Apr-16 20:31N 38°47' E 120°04'812.7
2018-Apr-16 19:52N 38°50' E 119°54'512.5
2018-Apr-16 19:29N 38°52' E 119°48'612.4
2018-Apr-16 19:00N 38°54' E 119°41'  
Track history (hours):
 
Tides and Currents Weather Stations Pressure Air Temp Water Temp Dewpoint Dewpoint Depression Visibility Wind Speed Wind Dir Waves Ship Positions

EndleSS Horizon

Last reported at 2018-Apr-20 11:47 UTC. Time now 2018-May-25 01:27 UTC.
Position N 23°16' E 117°33'.
Warning: this ship's position is 34 days out of date.

Length 189 m; draft 11.9 m.

Type: Cargo ship. MMSI: 636015358.

Date/timePositionNaut miles runAvg speedWind from/ knotsBaromVisibWave heightAir tempDewpointWater temp
2018-Apr-20 11:47N 23°16' E 117°33'413.7
2018-Apr-20 11:29N 23°19' E 117°36'713.9
2018-Apr-20 11:00N 23°23' E 117°42'713.9
2018-Apr-20 10:30N 23°28' E 117°47'714.0
2018-Apr-20 10:01N 23°33' E 117°52'714.0
2018-Apr-20 09:29N 23°38' E 117°59'714.3
2018-Apr-20 08:59N 23°43' E 118°05'1114.3
2018-Apr-20 08:13N 23°50' E 118°14'414.2
2018-Apr-20 07:57N 23°52' E 118°17'614.1
2018-Apr-20 07:31N 23°56' E 118°22'713.8
2018-Apr-20 06:58N 24°02' E 118°27'613.0
2018-Apr-20 06:30N 24°05' E 118°33'813.7
2018-Apr-20 05:57N 24°10' E 118°39'613.4
2018-Apr-20 05:28N 24°14' E 118°45'1113.1
2018-Apr-20 04:39N 24°21' E 118°53'312.9
2018-Apr-20 04:27N 24°23' E 118°55'712.8
2018-Apr-20 03:53N 24°28' E 119°02'1812.3
2018-Apr-20 02:24N 24°39' E 119°18'38312.5
2018-Apr-18 19:55N 29°57' E 123°17'1212.6
2018-Apr-18 18:57N 30°08' E 123°23'612.5
2018-Apr-18 18:27N 30°13' E 123°26'912.4
2018-Apr-18 17:43N 30°22' E 123°31'1511.5
2018-Apr-18 16:27N 30°36' E 123°34'712.0
2018-Apr-18 15:53N 30°43' E 123°34'612.5
2018-Apr-18 15:26N 30°48' E 123°35'511.4
2018-Apr-18 15:00N 30°53' E 123°35'612.5
2018-Apr-18 14:30N 30°59' E 123°36'712.5
2018-Apr-18 13:55N 31°06' E 123°36'512.7
2018-Apr-18 13:30N 31°12' E 123°34'611.3
2018-Apr-18 13:00N 31°17' E 123°34'1019.5
2018-Apr-18 12:29N 31°27' E 123°33'4 8.2
2018-Apr-18 12:00N 31°31' E 123°33'1117.6
2018-Apr-18 11:22N 31°42' E 123°31'3 8.7
2018-Apr-18 11:00N 31°45' E 123°31'815.2
2018-Apr-18 10:29N 31°53' E 123°31'815.1
2018-Apr-18 09:59N 32°01' E 123°30'2314.6
2018-Apr-18 08:23N 32°24' E 123°26'613.0
2018-Apr-18 07:56N 32°30' E 123°25'34512.2
2018-Apr-17 03:36N 38°06' E 121°53'512.9
2018-Apr-17 03:14N 38°08' E 121°48'312.9
2018-Apr-17 03:00N 38°10' E 121°45'612.8
2018-Apr-17 02:30N 38°13' E 121°37'612.8
2018-Apr-17 02:00N 38°16' E 121°30'913.0
2018-Apr-17 01:20N 38°21' E 121°21'713.3
2018-Apr-17 00:50N 38°24' E 121°13'613.6
2018-Apr-17 00:24N 38°27' E 121°07'513.9
2018-Apr-17 00:01N 38°30' E 121°01'1213.8
2018-Apr-16 23:08N 38°35' E 120°47'314.3
2018-Apr-16 22:56N 38°36' E 120°43'614.1
2018-Apr-16 22:30N 38°38' E 120°36'713.9
2018-Apr-16 22:00N 38°40' E 120°28'713.8
2018-Apr-16 21:30N 38°43' E 120°20'713.6
2018-Apr-16 21:00N 38°45' E 120°12'713.2
2018-Apr-16 20:31N 38°47' E 120°04'812.7
2018-Apr-16 19:52N 38°50' E 119°54'512.5
2018-Apr-16 19:29N 38°52' E 119°48'612.4
2018-Apr-16 19:00N 38°54' E 119°41'  

Dump ship's entire track history